Time;durP1;ratioP1;P1;durP2;ratioP2;P2;SDS_P1;SDS_P2;PMS_P1;PMS_P2;Temp;Humidity;BMP_temperature;BMP_pressure;BME280_temperature;BME280_humidity;BME280_pressure;Samples;Min_cycle;Max_cycle;Signal;HPM_P1;HPM_P2
2022/01/02 00:00:46;;;;;;;82.72;42.72;;;7.70;99.90;;;;;;5170031;28;20042;-89
2022/01/02 00:03:21;;;;;;;76.72;41.70;;;7.60;99.90;;;;;;5168969;28;20027;-86
2022/01/02 00:05:54;;;;;;;79.25;42.08;;;7.70;99.90;;;;;;5170355;28;20030;-89
2022/01/02 00:08:25;;;;;;;77.15;39.30;;;7.70;99.90;;;;;;5170175;28;20028;-88
2022/01/02 00:10:58;;;;;;;73.68;37.40;;;7.80;99.90;;;;;;5170031;28;20496;-85
2022/01/02 00:13:35;;;;;;;74.93;37.40;;;7.80;99.90;;;;;;5169641;28;20050;-89
2022/01/02 00:16:07;;;;;;;68.70;36.30;;;7.80;99.90;;;;;;5169966;28;20033;-86
2022/01/02 00:18:47;;;;;;;73.05;37.08;;;7.80;99.90;;;;;;5169780;28;20497;-89
2022/01/02 00:21:20;;;;;;;69.13;36.17;;;7.80;99.90;;;;;;5168290;28;20481;-84
2022/01/02 00:26:34;;;;;;;68.78;35.72;;;7.80;99.90;;;;;;5169827;28;20033;-89
2022/01/02 00:29:06;;;;;;;74.20;35.75;;;7.70;99.90;;;;;;5168406;28;20077;-89
2022/01/02 00:31:39;;;;;;;71.78;36.40;;;7.50;99.90;;;;;;5169595;28;20053;-89
2022/01/02 00:34:10;;;;;;;70.20;34.50;;;7.50;99.90;;;;;;5170165;28;20422;-88
2022/01/02 00:36:42;;;;;;;62.67;34.45;;;7.50;99.90;;;;;;5172010;28;20041;-89
2022/01/02 00:39:13;;;;;;;73.45;36.22;;;7.40;99.90;;;;;;5176853;28;20042;-90
2022/01/02 00:41:55;;;;;;;63.65;34.00;;;7.40;99.90;;;;;;5174204;28;20026;-90
2022/01/02 00:44:48;;;;;;;61.55;33.05;;;7.30;99.90;;;;;;5172981;28;20046;-90
2022/01/02 00:47:39;;;;;;;64.32;34.55;;;7.20;99.90;;;;;;5173879;28;20033;-88
2022/01/02 00:50:18;;;;;;;66.65;35.28;;;7.00;99.90;;;;;;5173313;28;20049;-89
2022/01/02 00:52:50;;;;;;;72.68;36.35;;;6.90;99.90;;;;;;5173529;28;20061;-89
2022/01/02 00:55:23;;;;;;;80.05;37.53;;;6.80;99.90;;;;;;5171998;28;20026;-89
2022/01/02 00:57:54;;;;;;;67.20;33.97;;;6.90;99.90;;;;;;5170066;28;20493;-89
2022/01/02 01:00:26;;;;;;;62.50;33.15;;;6.90;99.90;;;;;;5172102;28;20038;-89
2022/01/02 01:03:09;;;;;;;71.75;32.42;;;6.90;99.90;;;;;;5171088;28;20022;-90
2022/01/02 01:05:40;;;;;;;83.20;41.60;;;6.90;99.90;;;;;;5160893;28;20054;-89
2022/01/02 01:08:11;;;;;;;90.32;41.22;;;6.80;99.90;;;;;;5150632;28;20023;-89
2022/01/02 01:10:44;;;;;;;63.03;31.42;;;6.70;99.90;;;;;;5151008;28;20034;-82
2022/01/02 01:13:16;;;;;;;58.38;27.20;;;6.70;99.90;;;;;;5150016;28;20027;-89
2022/01/02 01:15:47;;;;;;;64.45;32.65;;;6.40;99.90;;;;;;5149638;28;20030;-88
2022/01/02 01:18:18;;;;;;;60.17;29.45;;;6.50;99.90;;;;;;5153953;28;20077;-90
2022/01/02 01:20:50;;;;;;;58.05;28.45;;;6.40;99.90;;;;;;5153987;28;20041;-90
2022/01/02 01:23:22;;;;;;;55.78;27.13;;;6.50;99.90;;;;;;5151936;28;20081;-86
2022/01/02 01:25:52;;;;;;;56.20;27.48;;;6.60;99.90;;;;;;5152245;28;20027;-89
2022/01/02 01:28:23;;;;;;;57.25;28.65;;;6.30;99.90;;;;;;5155358;28;20026;-90
2022/01/02 01:30:56;;;;;;;56.40;27.63;;;6.60;99.90;;;;;;5157001;28;20356;-90
2022/01/02 01:33:27;;;;;;;60.60;31.80;;;6.60;99.90;;;;;;5153392;28;20057;-89
2022/01/02 01:35:58;;;;;;;71.72;35.15;;;6.60;99.90;;;;;;5155904;28;20031;-89
2022/01/02 01:38:29;;;;;;;61.88;29.23;;;6.60;99.90;;;;;;5164548;28;20050;-90
2022/01/02 01:41:14;;;;;;;62.83;30.73;;;6.60;99.90;;;;;;5160531;28;20042;-90
2022/01/02 01:43:54;;;;;;;66.85;33.55;;;6.70;99.90;;;;;;5153280;28;20041;-89
2022/01/02 01:46:25;;;;;;;;;;;6.60;99.90;;;;;;5156549;28;20041;-90
2022/01/02 01:48:56;;;;;;;61.80;28.38;;;6.60;99.90;;;;;;5156813;28;19965;-89
2022/01/02 01:51:26;;;;;;;51.40;26.58;;;6.70;99.90;;;;;;5154272;28;20123;-89
2022/01/02 01:53:57;;;;;;;61.30;31.75;;;6.80;99.90;;;;;;5151235;28;20102;-89
2022/01/02 01:56:28;;;;;;;66.55;32.35;;;6.60;99.90;;;;;;5148882;28;20031;-88
2022/01/02 01:58:59;;;;;;;69.90;36.25;;;6.70;99.90;;;;;;5152959;28;20059;-90
2022/01/02 02:01:30;;;;;;;57.38;32.85;;;6.60;99.90;;;;;;5155401;28;20031;-90
2022/01/02 02:04:01;;;;;;;65.88;32.13;;;6.70;99.90;;;;;;5148898;28;20027;-88
2022/01/02 02:06:34;;;;;;;67.90;34.92;;;6.80;99.90;;;;;;5150350;28;20053;-90
2022/01/02 02:09:05;;;;;;;59.05;32.45;;;6.80;99.90;;;;;;5151003;28;20046;-90
2022/01/02 02:11:38;;;;;;;61.53;31.75;;;6.80;99.90;;;;;;5150468;28;20066;-87
2022/01/02 02:14:09;;;;;;;61.67;32.80;;;6.70;99.90;;;;;;5149719;28;20491;-89
2022/01/02 02:16:40;;;;;;;56.75;31.25;;;6.70;99.90;;;;;;5151308;28;20091;-90
2022/01/02 02:19:10;;;;;;;56.83;30.02;;;6.80;99.90;;;;;;5151198;28;20050;-89
2022/01/02 02:21:41;;;;;;;64.57;33.30;;;6.70;99.90;;;;;;5150358;28;20038;-89
2022/01/02 02:24:14;;;;;;;59.88;31.30;;;6.50;99.90;;;;;;5151606;28;20023;-89
2022/01/02 02:26:45;;;;;;;61.20;31.05;;;6.60;99.90;;;;;;5151821;28;20031;-88
2022/01/02 02:29:15;;;;;;;54.38;27.60;;;6.60;99.90;;;;;;5151087;28;20031;-88
2022/01/02 02:31:46;;;;;;;55.42;29.20;;;6.70;99.90;;;;;;5150605;28;20027;-85
2022/01/02 02:34:17;;;;;;;64.50;31.45;;;6.60;99.90;;;;;;5148492;28;20097;-88
2022/01/02 02:36:48;;;;;;;60.53;29.77;;;6.70;99.90;;;;;;5155065;28;20031;-90
2022/01/02 02:39:19;;;;;;;56.30;28.77;;;6.70;99.90;;;;;;5158304;28;20089;-89
2022/01/02 02:41:50;;;;;;;59.97;30.15;;;6.80;99.90;;;;;;5152681;28;20471;-88
2022/01/02 02:44:35;;;;;;;63.60;29.17;;;6.70;99.90;;;;;;5151630;28;20080;-89
2022/01/02 02:49:55;;;;;;;46.35;22.88;;;6.70;99.90;;;;;;5151869;28;20129;-86
2022/01/02 02:52:38;;;;;;;51.83;26.08;;;6.80;99.90;;;;;;5150760;28;20023;-90
2022/01/02 02:55:10;;;;;;;48.70;23.60;;;6.80;99.90;;;;;;5150209;28;20023;-89
2022/01/02 02:57:45;;;;;;;51.70;24.20;;;6.80;99.90;;;;;;5148082;28;20161;-77
2022/01/02 03:00:23;;;;;;;41.35;22.52;;;6.90;99.90;;;;;;5145867;28;20034;-76
2022/01/02 03:02:58;;;;;;;46.55;23.67;;;6.80;99.90;;;;;;5150398;28;20054;-90
2022/01/02 03:05:34;;;;;;;40.70;21.05;;;6.70;99.90;;;;;;5151866;28;20041;-89
2022/01/02 03:08:04;;;;;;;41.40;21.33;;;6.70;99.90;;;;;;5154027;28;20019;-90
2022/01/02 03:10:35;;;;;;;45.30;21.83;;;6.80;99.90;;;;;;5152881;28;20033;-89
2022/01/02 03:13:06;;;;;;;47.85;23.35;;;6.80;99.90;;;;;;5150606;28;20043;-90
2022/01/02 03:15:37;;;;;;;40.83;21.75;;;6.80;99.90;;;;;;5151413;28;20042;-89
2022/01/02 03:18:08;;;;;;;47.60;23.85;;;6.80;99.90;;;;;;5150406;28;20378;-90
2022/01/02 03:20:39;;;;;;;43.90;22.38;;;6.80;99.90;;;;;;5151523;28;20037;-90
2022/01/02 03:23:10;;;;;;;46.22;23.23;;;6.80;99.90;;;;;;5149629;28;20023;-90
2022/01/02 03:25:41;;;;;;;39.67;21.30;;;6.70;99.90;;;;;;5151780;28;20450;-89
2022/01/02 03:28:12;;;;;;;49.35;23.98;;;6.80;99.90;;;;;;5149844;28;20027;-89
2022/01/02 03:30:43;;;;;;;47.47;22.73;;;6.90;99.90;;;;;;5150576;28;20106;-90
2022/01/02 03:33:14;;;;;;;40.30;21.75;;;6.80;99.90;;;;;;5148791;28;20090;-90
2022/01/02 03:35:45;;;;;;;43.83;21.70;;;6.70;99.90;;;;;;5150185;28;20026;-90
2022/01/02 03:38:16;;;;;;;42.30;22.30;;;6.80;99.90;;;;;;5153630;28;20030;-90
2022/01/02 03:40:47;;;;;;;44.33;22.60;;;6.80;99.90;;;;;;5152737;28;20042;-91
2022/01/02 03:43:18;;;;;;;45.20;22.30;;;6.80;99.90;;;;;;5148354;28;20043;-90
2022/01/02 03:45:48;;;;;;;44.90;22.38;;;6.90;99.90;;;;;;5149828;28;20054;-89
2022/01/02 03:48:20;;;;;;;49.47;23.92;;;6.80;99.90;;;;;;5151528;28;20034;-90
2022/01/02 03:50:50;;;;;;;46.42;23.73;;;6.90;99.90;;;;;;5150144;28;20054;-88
2022/01/02 03:53:21;;;;;;;44.78;22.80;;;7.00;99.90;;;;;;5149921;28;20078;-88
2022/01/02 03:55:52;;;;;;;47.50;24.20;;;7.00;99.90;;;;;;5150318;28;20025;-88
2022/01/02 03:58:23;;;;;;;48.17;23.55;;;7.00;99.90;;;;;;5148817;28;20042;-90
2022/01/02 04:00:54;;;;;;;47.88;24.20;;;7.00;99.90;;;;;;5154669;28;20035;-89
2022/01/02 04:03:25;;;;;;;44.13;22.85;;;6.90;99.90;;;;;;5153245;28;20038;-89
2022/01/02 04:05:56;;;;;;;42.22;21.85;;;7.10;99.90;;;;;;5152923;28;20027;-89
2022/01/02 04:08:27;;;;;;;43.40;22.10;;;7.10;99.90;;;;;;5152285;28;20039;-90
2022/01/02 04:10:58;;;;;;;45.20;23.35;;;7.00;99.90;;;;;;5154148;28;20430;-81
2022/01/02 04:13:29;;;;;;;46.60;24.02;;;7.10;99.90;;;;;;5151842;28;20062;-90
2022/01/02 04:15:59;;;;;;;38.47;21.27;;;7.00;99.90;;;;;;5152748;28;20105;-90
2022/01/02 04:18:30;;;;;;;50.67;25.15;;;7.00;99.90;;;;;;5152144;28;20116;-90
2022/01/02 04:21:01;;;;;;;44.97;22.80;;;7.10;99.90;;;;;;5152991;28;20031;-89
2022/01/02 04:23:32;;;;;;;45.83;22.73;;;7.10;99.90;;;;;;5151184;28;20047;-90
2022/01/02 04:26:02;;;;;;;41.08;22.38;;;7.20;99.90;;;;;;5153353;28;20037;-89
2022/01/02 04:28:34;;;;;;;45.72;22.98;;;7.20;99.90;;;;;;5153142;28;20074;-89
2022/01/02 04:31:05;;;;;;;45.72;24.95;;;7.30;99.90;;;;;;5152415;28;20022;-90
2022/01/02 04:33:36;;;;;;;173.52;89.60;;;7.20;99.90;;;;;;5149253;28;20102;-88
2022/01/02 04:36:07;;;;;;;93.70;49.80;;;7.20;99.90;;;;;;5151880;28;20494;-89
2022/01/02 04:38:39;;;;;;;76.40;40.38;;;7.30;99.90;;;;;;5158667;28;20556;-90
2022/01/02 04:41:10;;;;;;;66.53;34.80;;;7.30;99.90;;;;;;5156502;28;20026;-88
2022/01/02 04:43:41;;;;;;;67.60;34.47;;;7.20;99.90;;;;;;5152516;28;20030;-89
2022/01/02 04:46:14;;;;;;;66.88;36.50;;;7.30;99.90;;;;;;5153410;28;20019;-89
2022/01/02 04:48:44;;;;;;;54.63;29.05;;;7.30;99.90;;;;;;5155289;28;20050;-89
2022/01/02 04:51:17;;;;;;;60.13;31.73;;;7.30;99.90;;;;;;5155196;28;20027;-87
2022/01/02 04:53:49;;;;;;;60.83;32.00;;;7.20;99.90;;;;;;5153292;28;20066;-89
2022/01/02 04:56:20;;;;;;;48.83;25.08;;;7.20;99.90;;;;;;5151850;28;20467;-88
2022/01/02 04:58:51;;;;;;;52.22;27.02;;;7.30;99.90;;;;;;5153979;28;20035;-90
2022/01/02 05:01:22;;;;;;;38.00;21.75;;;7.40;99.90;;;;;;5156906;28;20038;-89
2022/01/02 05:03:52;;;;;;;39.35;22.73;;;7.40;99.90;;;;;;5153645;28;20467;-90
2022/01/02 05:06:23;;;;;;;40.33;22.30;;;7.40;99.90;;;;;;5154055;28;20034;-90
2022/01/02 05:08:54;;;;;;;40.17;23.08;;;7.30;99.90;;;;;;5154666;28;20061;-89
2022/01/02 05:11:25;;;;;;;41.08;22.83;;;7.30;99.90;;;;;;5155414;28;20038;-90
2022/01/02 05:13:56;;;;;;;40.47;23.75;;;7.30;99.90;;;;;;5154452;28;20083;-90
2022/01/02 05:16:27;;;;;;;69.43;37.05;;;7.30;99.90;;;;;;5154064;28;20027;-87
2022/01/02 05:18:59;;;;;;;52.63;28.33;;;7.20;99.90;;;;;;5174232;28;20041;-88
2022/01/02 05:21:30;;;;;;;53.03;28.25;;;7.10;99.90;;;;;;5173172;28;20031;-90
2022/01/02 05:24:00;;;;;;;47.95;25.95;;;7.20;99.90;;;;;;5159264;28;20534;-90
2022/01/02 05:26:31;;;;;;;45.47;27.48;;;7.30;99.90;;;;;;5152342;28;20027;-90
2022/01/02 05:29:03;;;;;;;57.45;28.38;;;7.30;99.90;;;;;;5153383;28;20023;-87
2022/01/02 05:31:34;;;;;;;50.92;29.17;;;7.30;99.90;;;;;;5153330;28;20061;-91
2022/01/02 05:34:05;;;;;;;52.72;30.55;;;7.30;99.90;;;;;;5151394;28;20026;-89
2022/01/02 05:36:36;;;;;;;57.42;30.42;;;7.40;99.90;;;;;;5155387;28;20054;-88
2022/01/02 05:39:06;;;;;;;54.17;30.83;;;7.40;99.90;;;;;;5161169;28;20049;-90
2022/01/02 05:41:38;;;;;;;39.88;24.02;;;7.40;99.90;;;;;;5156257;28;20023;-90
2022/01/02 05:44:09;;;;;;;44.05;26.35;;;7.30;99.90;;;;;;5134043;28;20475;-91
2022/01/02 05:46:40;;;;;;;53.83;29.40;;;7.30;99.90;;;;;;5153119;28;20031;-89
2022/01/02 05:49:12;;;;;;;55.85;30.00;;;7.40;99.90;;;;;;5169733;28;20038;-88
2022/01/02 05:51:42;;;;;;;76.55;42.08;;;7.30;99.90;;;;;;5155383;28;20058;-90
2022/01/02 05:54:14;;;;;;;77.78;42.67;;;7.30;99.90;;;;;;5152788;28;20030;-90
2022/01/02 05:56:44;;;;;;;65.03;34.33;;;7.40;99.90;;;;;;5153625;28;20034;-91
2022/01/02 05:59:15;;;;;;;55.97;30.65;;;7.30;99.90;;;;;;5153460;28;20031;-89
2022/01/02 06:01:46;;;;;;;54.53;29.52;;;7.40;99.90;;;;;;5159543;28;20027;-87
2022/01/02 06:04:17;;;;;;;49.35;27.88;;;7.40;99.90;;;;;;5153750;28;20033;-89
2022/01/02 06:06:47;;;;;;;57.38;32.40;;;7.50;99.90;;;;;;5152061;28;20117;-90
2022/01/02 06:09:18;;;;;;;56.55;30.48;;;7.40;99.90;;;;;;5154120;28;20023;-90
2022/01/02 06:11:50;;;;;;;56.10;29.55;;;7.40;99.90;;;;;;5153189;28;20023;-90
2022/01/02 06:14:21;;;;;;;55.80;30.92;;;7.10;99.90;;;;;;5151867;28;20598;-79
2022/01/02 06:16:52;;;;;;;54.80;29.45;;;7.20;99.90;;;;;;5150918;28;20061;-89
2022/01/02 06:19:23;;;;;;;59.38;31.80;;;7.30;99.90;;;;;;5153429;28;20034;-87
2022/01/02 06:21:54;;;;;;;58.60;33.83;;;7.20;99.90;;;;;;5154350;28;20030;-91
2022/01/02 06:24:24;;;;;;;95.22;53.80;;;7.30;99.90;;;;;;5153668;28;20382;-89
2022/01/02 06:26:55;;;;;;;106.85;62.38;;;7.50;99.90;;;;;;5152708;28;20027;-84
2022/01/02 06:29:26;;;;;;;112.20;63.20;;;7.60;99.90;;;;;;5151382;28;20035;-85
2022/01/02 06:31:57;;;;;;;97.00;54.85;;;7.70;99.90;;;;;;5150779;28;20027;-85
2022/01/02 06:34:28;;;;;;;94.13;49.45;;;7.70;99.90;;;;;;5147358;28;20031;-87
2022/01/02 06:36:59;;;;;;;83.72;49.63;;;7.80;99.90;;;;;;5147429;28;20626;-80
2022/01/02 06:39:30;;;;;;;73.32;44.72;;;7.90;99.90;;;;;;5154166;28;20219;-90
2022/01/02 06:42:01;;;;;;;63.35;37.47;;;7.80;99.90;;;;;;5160930;28;20086;-90
2022/01/02 06:44:32;;;;;;;64.03;37.45;;;7.80;99.90;;;;;;5153928;28;20035;-85
2022/01/02 06:47:03;;;;;;;69.32;41.58;;;8.00;99.90;;;;;;5154257;28;20061;-85
2022/01/02 06:49:34;;;;;;;65.85;38.80;;;8.00;99.90;;;;;;5163448;28;20064;-90
2022/01/02 06:52:04;;;;;;;62.03;36.55;;;8.10;99.90;;;;;;5168743;28;20022;-90
2022/01/02 06:54:37;;;;;;;57.55;35.22;;;8.20;99.90;;;;;;5168917;28;20486;-90
2022/01/02 06:57:08;;;;;;;62.78;36.58;;;8.20;99.90;;;;;;5170979;28;20029;-90
2022/01/02 06:59:39;;;;;;;51.30;30.60;;;8.30;99.90;;;;;;5171330;28;20042;-88
2022/01/02 07:02:09;;;;;;;58.25;33.83;;;8.30;99.90;;;;;;5176938;28;20029;-90
2022/01/02 07:04:40;;;;;;;83.95;41.22;;;8.30;99.90;;;;;;5172312;28;20426;-88
2022/01/02 07:07:11;;;;;;;61.85;34.05;;;8.40;99.90;;;;;;5171942;28;20030;-88
2022/01/02 07:09:42;;;;;;;48.78;29.52;;;8.40;99.90;;;;;;5180485;28;20041;-85
2022/01/02 07:12:13;;;;;;;55.08;31.52;;;8.50;99.90;;;;;;5186123;28;20026;-90
2022/01/02 07:14:43;;;;;;;48.05;29.88;;;8.50;99.90;;;;;;5181393;28;20102;-90
2022/01/02 07:17:14;;;;;;;49.05;30.15;;;8.50;99.90;;;;;;5187455;28;20041;-87
2022/01/02 07:19:45;;;;;;;44.75;26.67;;;8.40;99.90;;;;;;5189231;28;20098;-86
2022/01/02 07:22:16;;;;;;;46.78;28.13;;;8.50;99.90;;;;;;5189514;28;19998;-89
2022/01/02 07:24:51;;;;;;;54.92;32.65;;;8.60;99.90;;;;;;5188396;28;20034;-88
2022/01/02 07:27:22;;;;;;;45.30;27.42;;;8.50;99.90;;;;;;5182137;28;20038;-89
2022/01/02 07:29:55;;;;;;;42.40;25.30;;;8.60;99.90;;;;;;5174766;28;20026;-88
2022/01/02 07:32:25;;;;;;;41.40;25.30;;;8.70;99.90;;;;;;5181576;28;20045;-87
2022/01/02 07:34:56;;;;;;;41.50;25.70;;;8.60;99.90;;;;;;5182592;28;20031;-89
2022/01/02 07:37:27;;;;;;;42.47;26.40;;;8.60;99.90;;;;;;5184499;28;20060;-87
2022/01/02 07:39:58;;;;;;;48.63;27.75;;;8.60;99.90;;;;;;5184694;28;20042;-86
2022/01/02 07:42:28;;;;;;;42.53;24.13;;;8.70;99.90;;;;;;5179924;28;20061;-84
2022/01/02 07:44:59;;;;;;;42.80;25.13;;;8.70;99.90;;;;;;5181550;28;20003;-84
2022/01/02 07:47:30;;;;;;;39.45;25.27;;;8.70;99.90;;;;;;5182075;28;20019;-89
2022/01/02 07:50:01;;;;;;;44.28;26.02;;;8.70;99.90;;;;;;5168168;28;20026;-87
2022/01/02 07:52:32;;;;;;;45.33;26.20;;;8.70;99.90;;;;;;5166286;28;20030;-90
2022/01/02 07:55:03;;;;;;;42.25;25.58;;;8.70;99.90;;;;;;5156183;28;20018;-88
2022/01/02 07:57:35;;;;;;;43.53;25.48;;;8.70;99.90;;;;;;5154678;28;20054;-90
2022/01/02 08:00:06;;;;;;;42.75;26.13;;;8.80;99.90;;;;;;5160230;28;20360;-90
2022/01/02 08:02:37;;;;;;;48.97;29.35;;;8.80;99.90;;;;;;5162198;28;20030;-90
2022/01/02 08:05:10;;;;;;;47.10;30.52;;;8.90;99.90;;;;;;5158955;28;20054;-84
2022/01/02 08:07:41;;;;;;;45.53;29.10;;;8.90;99.90;;;;;;5156209;28;20043;-87
2022/01/02 08:10:12;;;;;;;49.75;28.98;;;8.80;99.90;;;;;;5151885;28;20037;-83
2022/01/02 08:12:43;;;;;;;45.67;27.95;;;8.70;99.90;;;;;;5158046;28;20027;-88
2022/01/02 08:15:14;;;;;;;53.20;27.65;;;8.80;99.90;;;;;;5167789;28;20429;-90
2022/01/02 08:17:45;;;;;;;46.10;26.45;;;8.90;99.90;;;;;;5181822;28;20035;-89
2022/01/02 08:20:16;;;;;;;53.05;30.58;;;8.90;99.90;;;;;;5164019;28;20114;-90
2022/01/02 08:22:47;;;;;;;41.75;25.67;;;8.90;99.90;;;;;;5165129;28;20057;-89
2022/01/02 08:25:18;;;;;;;40.63;24.48;;;8.80;99.90;;;;;;5164019;28;20086;-87
2022/01/02 08:33:13;;;;;;;58.75;33.50;;;9.00;99.90;;;;;;3815346;23;20109;-89
2022/01/02 08:35:44;;;;;;;51.75;32.00;;;8.90;99.90;;;;;;5242530;22;20045;-89
2022/01/02 08:38:15;;;;;;;64.38;38.75;;;8.90;99.90;;;;;;5254873;28;20013;-84
2022/01/02 08:40:46;;;;;;;57.75;33.88;;;9.00;99.90;;;;;;5253477;28;20033;-88
2022/01/02 08:45:47;;;;;;;54.92;33.40;;;9.00;99.90;;;;;;5267763;22;20045;-88
2022/01/02 08:48:18;;;;;;;54.63;32.38;;;9.10;99.90;;;;;;5245438;28;20024;-77
2022/01/02 08:50:49;;;;;;;56.70;32.38;;;9.20;99.90;;;;;;5267019;28;20021;-89
2022/01/02 08:53:20;;;;;;;60.33;34.67;;;9.20;99.90;;;;;;5264923;28;20396;-81
2022/01/02 08:55:50;;;;;;;59.05;34.58;;;9.30;99.90;;;;;;5266384;28;20032;-87
2022/01/02 08:58:22;;;;;;;58.35;34.92;;;9.20;99.90;;;;;;5248819;28;20024;-79
2022/01/02 09:00:52;;;;;;;61.28;34.47;;;9.30;99.90;;;;;;5261124;28;20488;-76
2022/01/02 09:03:24;;;;;;;53.72;35.00;;;9.30;99.90;;;;;;5270129;28;20040;-87
2022/01/02 09:05:55;;;;;;;71.15;40.00;;;9.30;99.90;;;;;;5261451;28;20024;-80
2022/01/02 09:08:26;;;;;;;73.45;44.00;;;9.20;99.90;;;;;;5262323;28;20014;-82
2022/01/02 09:10:56;;;;;;;68.10;42.17;;;9.20;99.90;;;;;;5263906;28;20024;-78
2022/01/02 09:13:27;;;;;;;68.68;40.65;;;9.10;99.90;;;;;;5253758;28;20044;-88
2022/01/02 09:15:59;;;;;;;65.50;39.22;;;9.10;99.90;;;;;;5255278;28;20016;-77
2022/01/02 09:18:30;;;;;;;73.88;44.25;;;9.30;99.90;;;;;;5278488;28;20027;-89
2022/01/02 09:21:01;;;;;;;69.47;42.55;;;9.30;99.90;;;;;;5264619;28;20028;-86
2022/01/02 09:23:32;;;;;;;77.43;44.47;;;9.30;99.90;;;;;;5253849;28;20017;-85
2022/01/02 09:26:03;;;;;;;97.07;60.35;;;9.30;99.90;;;;;;5264881;28;20036;-87
2022/01/02 09:28:34;;;;;;;124.28;75.88;;;9.30;99.90;;;;;;5264972;28;20024;-86
2022/01/02 09:31:05;;;;;;;125.72;80.43;;;9.40;99.90;;;;;;5261908;28;20028;-87
2022/01/02 09:33:36;;;;;;;108.80;66.78;;;9.30;99.90;;;;;;5252475;28;20041;-89
2022/01/02 09:36:07;;;;;;;123.03;75.30;;;9.30;99.90;;;;;;5241770;28;20380;-85
2022/01/02 09:38:38;;;;;;;101.70;61.20;;;9.30;99.90;;;;;;5254165;28;20086;-86
2022/01/02 09:41:08;;;;;;;97.30;60.55;;;9.40;99.90;;;;;;5266962;28;20061;-87
2022/01/02 09:43:39;;;;;;;88.53;55.50;;;9.40;99.90;;;;;;5259641;28;20082;-89
2022/01/02 09:46:11;;;;;;;97.03;60.95;;;9.50;99.90;;;;;;5259584;28;20070;-90
2022/01/02 09:48:44;;;;;;;103.30;66.90;;;9.60;99.90;;;;;;5238817;28;20028;-88
2022/01/02 09:53:46;;;;;;;135.70;90.55;;;9.60;99.90;;;;;;5257904;22;20085;-88
2022/01/02 09:56:18;;;;;;;130.23;82.40;;;9.60;99.90;;;;;;5287458;28;20028;-88
2022/01/02 09:58:49;;;;;;;134.63;82.88;;;9.60;99.90;;;;;;5283947;28;20054;-90
2022/01/02 10:01:23;;;;;;;132.90;86.18;;;9.60;99.90;;;;;;5283734;28;20150;-83
2022/01/02 10:03:55;;;;;;;141.05;85.07;;;9.60;99.90;;;;;;5289658;28;20088;-81
2022/01/02 10:06:48;;;;;;;151.25;93.43;;;9.50;99.90;;;;;;5277343;28;20086;-85
2022/01/02 10:09:38;;;;;;;123.75;71.93;;;9.60;99.90;;;;;;5277980;28;20024;-76
2022/01/02 10:12:29;;;;;;;64.00;42.22;;;9.80;99.90;;;;;;5270893;28;20024;-78
2022/01/02 10:15:18;;;;;;;66.93;48.05;;;9.90;99.90;;;;;;5285247;28;20052;-84
2022/01/02 10:18:10;;;;;;;50.67;34.97;;;10.00;99.90;;;;;;5264408;28;20032;-82
2022/01/02 10:20:45;;;;;;;39.15;27.70;;;10.20;99.90;;;;;;5264217;28;20036;-86
2022/01/02 10:23:24;;;;;;;42.00;30.30;;;10.30;99.90;;;;;;5274959;28;20033;-84
2022/01/02 10:26:00;;;;;;;42.55;29.40;;;10.30;99.90;;;;;;5274885;28;20024;-89
2022/01/02 10:28:36;;;;;;;41.22;30.00;;;10.30;99.90;;;;;;5278161;28;20020;-88
2022/01/02 10:31:14;;;;;;;43.90;32.78;;;10.40;99.90;;;;;;5277473;28;20032;-86
2022/01/02 10:34:01;;;;;;;33.85;23.95;;;10.40;99.90;;;;;;5274416;28;20016;-88
2022/01/02 10:36:40;;;;;;;29.48;19.40;;;10.50;99.90;;;;;;5272066;28;20024;-87
2022/01/02 10:39:20;;;;;;;25.95;19.35;;;10.60;99.90;;;;;;5275210;28;20023;-84
2022/01/02 10:41:51;;;;;;;26.15;17.90;;;10.60;99.90;;;;;;5272983;28;20050;-86
2022/01/02 10:44:31;;;;;;;26.45;19.65;;;10.50;99.90;;;;;;5272893;28;20107;-89
2022/01/02 10:47:17;;;;;;;28.55;18.67;;;10.60;99.90;;;;;;5275525;28;20024;-89
2022/01/02 10:49:54;;;;;;;24.02;17.00;;;10.50;99.90;;;;;;5271381;28;20024;-83
2022/01/02 10:52:29;;;;;;;27.30;17.52;;;10.50;99.90;;;;;;5272557;28;20054;-87
2022/01/02 10:55:05;;;;;;;24.33;18.40;;;10.60;99.90;;;;;;5275088;28;20378;-89
2022/01/02 10:57:36;;;;;;;21.92;16.58;;;10.60;99.90;;;;;;5274183;28;20024;-90
2022/01/02 11:00:08;;;;;;;28.13;18.92;;;10.60;99.90;;;;;;5281828;28;20047;-88
2022/01/02 11:02:39;;;;;;;20.55;15.43;;;10.70;99.90;;;;;;5284448;28;20020;-91
2022/01/02 11:05:12;;;;;;;19.45;14.95;;;10.80;99.90;;;;;;5272018;28;20032;-90
2022/01/02 11:07:49;;;;;;;24.55;14.60;;;10.80;99.90;;;;;;5260812;28;20021;-90
2022/01/02 11:10:23;;;;;;;20.95;14.98;;;10.80;99.90;;;;;;5241979;28;20486;-82
2022/01/02 11:12:54;;;;;;;22.55;14.38;;;10.80;99.90;;;;;;5285533;28;20032;-90
2022/01/02 11:15:27;;;;;;;18.38;14.40;;;10.80;99.90;;;;;;5270141;28;20383;-86
2022/01/02 11:17:59;;;;;;;22.67;16.38;;;10.80;99.90;;;;;;5274915;28;20028;-87
2022/01/02 11:20:33;;;;;;;20.30;16.08;;;10.80;99.90;;;;;;5276627;28;20032;-89
2022/01/02 11:23:14;;;;;;;49.20;35.33;;;10.80;99.90;;;;;;5262517;28;20044;-88
2022/01/02 11:25:52;;;;;;;25.85;18.15;;;10.70;99.90;;;;;;5252921;28;20487;-79
2022/01/02 11:28:26;;;;;;;26.00;17.63;;;10.90;99.90;;;;;;5283059;28;20095;-86
2022/01/02 11:30:56;;;;;;;26.58;17.02;;;10.80;99.90;;;;;;5284508;28;20055;-82
2022/01/02 11:33:43;;;;;;;59.20;46.53;;;10.80;99.90;;;;;;5278918;22;20029;-90
2022/01/02 11:36:32;;;;;;;26.00;18.27;;;10.70;99.90;;;;;;5245857;28;20080;-84
2022/01/02 11:39:04;;;;;;;22.98;17.40;;;10.80;99.90;;;;;;5248428;28;20058;-89
2022/01/02 11:41:43;;;;;;;19.42;12.75;;;10.80;99.90;;;;;;5238241;28;20033;-90
2022/01/02 11:44:19;;;;;;;14.73;10.35;;;10.80;99.90;;;;;;5248938;28;20062;-87
2022/01/02 11:46:56;;;;;;;30.85;23.85;;;10.90;99.90;;;;;;5257354;28;20020;-89
2022/01/02 11:49:53;;;;;;;28.95;21.17;;;10.80;99.90;;;;;;5229450;28;20029;-90
2022/01/02 11:52:26;;;;;;;28.33;21.63;;;10.80;99.90;;;;;;5239208;28;20037;-83
2022/01/02 11:54:57;;;;;;;20.27;14.63;;;10.90;99.90;;;;;;5261285;28;20025;-87
2022/01/02 11:57:27;;;;;;;13.15;9.80;;;11.00;99.90;;;;;;5265065;28;20063;-91
2022/01/02 11:59:59;;;;;;;19.13;12.77;;;11.00;99.90;;;;;;5256860;28;20029;-89
2022/01/02 12:02:37;;;;;;;16.58;11.93;;;10.90;99.90;;;;;;5226610;28;20037;-88
2022/01/02 12:05:14;;;;;;;17.45;11.02;;;10.90;99.90;;;;;;5255234;28;20037;-86
2022/01/02 12:07:52;;;;;;;11.73;7.70;;;11.00;99.90;;;;;;5244962;28;20024;-89
2022/01/02 12:10:30;;;;;;;12.63;7.50;;;10.90;99.90;;;;;;5244937;28;20088;-89
2022/01/02 12:13:10;;;;;;;13.93;9.10;;;10.90;99.90;;;;;;5231719;28;20029;-77
2022/01/02 12:16:01;;;;;;;12.38;8.45;;;11.20;99.90;;;;;;5259386;28;20028;-88
2022/01/02 12:18:34;;;;;;;14.88;8.80;;;11.00;99.90;;;;;;5269279;28;20031;-84
2022/01/02 12:21:05;;;;;;;15.27;10.25;;;11.10;99.90;;;;;;5271101;28;20039;-84
2022/01/02 12:23:41;;;;;;;17.17;12.05;;;11.20;99.90;;;;;;5264931;28;20480;-84
2022/01/02 12:26:15;;;;;;;18.85;13.10;;;11.20;99.90;;;;;;5250170;28;20056;-84
2022/01/02 12:29:01;;;;;;;26.20;18.90;;;11.30;99.90;;;;;;5262480;28;20020;-87
2022/01/02 12:31:38;;;;;;;17.65;10.40;;;11.10;99.90;;;;;;5256236;28;20031;-88
2022/01/02 12:34:17;;;;;;;14.52;9.40;;;11.10;99.90;;;;;;5256731;28;20055;-84
2022/01/02 12:36:50;;;;;;;17.08;10.55;;;11.20;99.90;;;;;;5261472;28;20111;-89
2022/01/02 12:39:26;;;;;;;13.50;10.07;;;11.10;99.90;;;;;;5267997;28;20052;-88
2022/01/02 12:42:11;;;;;;;13.95;10.23;;;11.20;99.90;;;;;;5270374;28;20048;-86
2022/01/02 12:44:43;;;;;;;12.95;9.27;;;11.20;99.90;;;;;;5267886;28;20023;-89
2022/01/02 12:47:15;;;;;;;15.35;10.05;;;11.00;99.90;;;;;;5268035;28;20017;-86
2022/01/02 12:49:47;;;;;;;12.60;9.48;;;11.00;99.90;;;;;;5244330;28;20052;-89
2022/01/02 12:52:18;;;;;;;15.02;9.75;;;10.90;99.90;;;;;;5242982;28;20084;-81
2022/01/02 12:54:50;;;;;;;27.92;19.67;;;10.80;99.90;;;;;;5245612;28;20065;-86
2022/01/02 12:57:23;;;;;;;22.85;15.73;;;10.70;99.90;;;;;;5242587;28;20032;-89
2022/01/02 12:59:57;;;;;;;16.65;10.75;;;10.80;99.90;;;;;;5261237;28;20020;-78
2022/01/02 13:02:29;;;;;;;24.00;15.30;;;10.40;99.90;;;;;;5253337;28;20056;-77
2022/01/02 13:05:04;;;;;;;57.40;35.85;;;10.30;99.90;;;;;;5258753;28;20079;-82
2022/01/02 13:07:37;;;;;;;19.48;14.75;;;10.50;99.90;;;;;;5260100;28;20024;-76
2022/01/02 13:10:12;;;;;;;13.00;7.43;;;10.30;99.90;;;;;;5267028;28;20035;-88
2022/01/02 13:12:45;;;;;;;9.05;6.55;;;10.30;99.90;;;;;;5268316;28;20028;-85
2022/01/02 13:15:19;;;;;;;12.93;6.78;;;10.10;99.90;;;;;;5268612;28;20028;-88
2022/01/02 13:17:56;;;;;;;14.02;8.98;;;10.10;99.90;;;;;;5260191;28;20076;-77
2022/01/02 13:20:29;;;;;;;12.20;7.20;;;10.00;99.90;;;;;;5261889;28;20040;-78